Aérodrome :
LOGIN :

S'inscrire | Disclaimer

   EN    FR    IT 

 










Légende :    VFR   VFR Marginal   IFR   IFR Intensif   IFR Très Intensif
Visi : 
Plafond : 
>= 8 km
>= 3000ft
5 à 8 km
1000 à 3000 ft
1500m à 5 km
500 à 1000 ft
800 à 1500m
200 à 500 ft
< 800m
< 200 ft
Symboles :   Orages  Brouillard  Fortes neiges  Fortes précipitations  Vent > 20 kt
SIGMETs :   Divers  Orages  Givrage  Turbulence  Onde Orograph.  Cendres Volcan.






- Altitude de l'aérodrome : 468 ft
- Code IATA : BQT


UMBB - Brest

DERNIER METAR :
  • 121030Z 15005G08MPS 6000 SCT017 SCT100 08/05 Q1015 R11/190060 NOSIG

METARs EXPIRÉS :
  • 121000Z 15005G08MPS 6000 NSC 08/05 Q1015 R11/290050 NOSIG
  • 120930Z 14004MPS 6000 NSC 07/04 Q1016 R11/290050 NOSIG
  • 120900Z 15004MPS 6000 NSC 07/04 Q1016 R11/290050 NOSIG
  • 120830Z 15004MPS 6000 NSC 05/03 Q1016 R11/290050 NOSIG
  • 120800Z 14004MPS 5000 BR NSC 05/03 Q1016 R11/290050 NOSIG

TAF TAF UMBB
Valide du 12 à 09h jusqu'au 12 à 18h UTC


120805Z 1209/1218 14005G10MPS 6000 BKN015
TEMPO 1210/1218 16007G12MPS



MET'MAP, la Météo Aéronautique d'un coup d'oeil ! - Copyright ORBIFLY Décembre 2007 - Disclaimer

ORBIFLY MET'MAP TEAM :

Programmation & Développement : Alexandra Zaïnal
Conception & Développement : Baudouin d'Aumeries
Co-Programmation & Développement : Marc-Olivier Méhu
Soutien technique & logistique : Manuel Goepfert

Contact : metmap@orbifly.com




SOURCES & CREDITS :

   NOAA